sensor_id;sensor_type;location;lat;lon;timestamp;pressure;altitude;pressure_sealevel;temperature;humidity
58473;BME280;44775;51.564;5.460;2023-09-19T00:01:46;100499.97;;;13.98;100.00
58473;BME280;44775;51.564;5.460;2023-09-19T00:04:14;100500.56;;;14.00;100.00
58473;BME280;44775;51.564;5.460;2023-09-19T00:06:40;100504.91;;;13.94;100.00
58473;BME280;44775;51.564;5.460;2023-09-19T00:09:06;100506.13;;;13.91;100.00
58473;BME280;44775;51.564;5.460;2023-09-19T00:11:36;100512.75;;;13.96;100.00
58473;BME280;44775;51.564;5.460;2023-09-19T00:14:01;100512.28;;;13.85;100.00
58473;BME280;44775;51.564;5.460;2023-09-19T00:16:26;100515.19;;;13.84;100.00
58473;BME280;44775;51.564;5.460;2023-09-19T00:18:52;100522.59;;;13.82;100.00
58473;BME280;44775;51.564;5.460;2023-09-19T00:21:17;100523.63;;;13.81;100.00
58473;BME280;44775;51.564;5.460;2023-09-19T00:23:44;100521.13;;;13.79;100.00
58473;BME280;44775;51.564;5.460;2023-09-19T00:26:09;100528.56;;;13.77;100.00
58473;BME280;44775;51.564;5.460;2023-09-19T00:28:35;100527.06;;;13.68;100.00
58473;BME280;44775;51.564;5.460;2023-09-19T00:31:00;100534.28;;;13.67;100.00
58473;BME280;44775;51.564;5.460;2023-09-19T00:33:27;100540.22;;;13.63;100.00
58473;BME280;44775;51.564;5.460;2023-09-19T00:35:55;100544.03;;;13.75;100.00
58473;BME280;44775;51.564;5.460;2023-09-19T00:38:22;100544.59;;;13.64;100.00
58473;BME280;44775;51.564;5.460;2023-09-19T00:40:52;100541.50;;;13.67;100.00
58473;BME280;44775;51.564;5.460;2023-09-19T00:43:18;100543.56;;;13.65;100.00
58473;BME280;44775;51.564;5.460;2023-09-19T00:45:47;100542.53;;;13.66;100.00
58473;BME280;44775;51.564;5.460;2023-09-19T00:48:14;100546.19;;;13.58;100.00
58473;BME280;44775;51.564;5.460;2023-09-19T00:50:41;100551.13;;;13.55;100.00
58473;BME280;44775;51.564;5.460;2023-09-19T00:53:09;100559.22;;;13.61;100.00
58473;BME280;44775;51.564;5.460;2023-09-19T00:55:36;100559.94;;;13.49;100.00
58473;BME280;44775;51.564;5.460;2023-09-19T00:58:03;100558.75;;;13.51;100.00
58473;BME280;44775;51.564;5.460;2023-09-19T01:00:29;100575.38;;;13.40;100.00
58473;BME280;44775;51.564;5.460;2023-09-19T01:02:54;100575.78;;;13.37;100.00
58473;BME280;44775;51.564;5.460;2023-09-19T01:05:19;100577.81;;;13.35;100.00
58473;BME280;44775;51.564;5.460;2023-09-19T01:07:45;100581.19;;;13.43;100.00
58473;BME280;44775;51.564;5.460;2023-09-19T01:10:14;100583.22;;;13.41;100.00
58473;BME280;44775;51.564;5.460;2023-09-19T01:12:48;100584.25;;;13.40;100.00
58473;BME280;44775;51.564;5.460;2023-09-19T01:17:59;100579.66;;;13.34;100.00
58473;BME280;44775;51.564;5.460;2023-09-19T01:20:38;100583.38;;;13.33;100.00
58473;BME280;44775;51.564;5.460;2023-09-19T01:26:00;100584.31;;;13.26;100.00
58473;BME280;44775;51.564;5.460;2023-09-19T01:28:34;100590.78;;;13.31;100.00
58473;BME280;44775;51.564;5.460;2023-09-19T01:31:04;100594.13;;;13.18;100.00
58473;BME280;44775;51.564;5.460;2023-09-19T01:33:57;100593.69;;;13.15;100.00
58473;BME280;44775;51.564;5.460;2023-09-19T01:36:24;100600.47;;;13.11;100.00
58473;BME280;44775;51.564;5.460;2023-09-19T01:38:51;100606.00;;;13.09;100.00
58473;BME280;44775;51.564;5.460;2023-09-19T01:41:26;100608.75;;;13.16;100.00
58473;BME280;44775;51.564;5.460;2023-09-19T01:43:52;100604.25;;;13.16;100.00
58473;BME280;44775;51.564;5.460;2023-09-19T01:46:30;100613.19;;;13.23;100.00
58473;BME280;44775;51.564;5.460;2023-09-19T01:51:34;100610.16;;;13.12;100.00
58473;BME280;44775;51.564;5.460;2023-09-19T01:54:04;100610.81;;;13.14;100.00
58473;BME280;44775;51.564;5.460;2023-09-19T01:56:42;100607.69;;;13.10;100.00
58473;BME280;44775;51.564;5.460;2023-09-19T01:59:13;100607.84;;;13.09;100.00
58473;BME280;44775;51.564;5.460;2023-09-19T02:01:42;100601.34;;;13.18;100.00
58473;BME280;44775;51.564;5.460;2023-09-19T02:04:09;100596.97;;;13.10;100.00
58473;BME280;44775;51.564;5.460;2023-09-19T02:06:35;100596.25;;;13.02;100.00
58473;BME280;44775;51.564;5.460;2023-09-19T02:09:04;100603.91;;;13.05;100.00
58473;BME280;44775;51.564;5.460;2023-09-19T02:11:29;100605.03;;;12.95;100.00
58473;BME280;44775;51.564;5.460;2023-09-19T02:13:55;100605.09;;;13.02;100.00
58473;BME280;44775;51.564;5.460;2023-09-19T02:16:20;100608.16;;;12.99;100.00
58473;BME280;44775;51.564;5.460;2023-09-19T02:18:49;100610.03;;;12.98;100.00
58473;BME280;44775;51.564;5.460;2023-09-19T02:21:15;100612.09;;;12.96;100.00
58473;BME280;44775;51.564;5.460;2023-09-19T02:23:40;100615.97;;;12.94;100.00
58473;BME280;44775;51.564;5.460;2023-09-19T02:26:06;100608.97;;;12.93;100.00
58473;BME280;44775;51.564;5.460;2023-09-19T02:28:31;100604.41;;;12.93;100.00
58473;BME280;44775;51.564;5.460;2023-09-19T02:30:57;100617.53;;;12.88;100.00
58473;BME280;44775;51.564;5.460;2023-09-19T02:33:23;100612.94;;;12.82;100.00
58473;BME280;44775;51.564;5.460;2023-09-19T02:35:48;100617.22;;;12.76;100.00
58473;BME280;44775;51.564;5.460;2023-09-19T02:38:13;100618.22;;;12.75;100.00
58473;BME280;44775;51.564;5.460;2023-09-19T02:40:43;100624.00;;;12.72;100.00
58473;BME280;44775;51.564;5.460;2023-09-19T02:43:08;100623.50;;;12.69;100.00
58473;BME280;44775;51.564;5.460;2023-09-19T02:45:34;100624.66;;;12.60;100.00
58473;BME280;44775;51.564;5.460;2023-09-19T02:47:59;100625.47;;;12.60;100.00
58473;BME280;44775;51.564;5.460;2023-09-19T02:50:25;100617.88;;;12.64;100.00
58473;BME280;44775;51.564;5.460;2023-09-19T02:52:50;100625.03;;;12.57;100.00
58473;BME280;44775;51.564;5.460;2023-09-19T02:55:17;100628.97;;;12.61;100.00
58473;BME280;44775;51.564;5.460;2023-09-19T02:57:48;100625.47;;;12.60;100.00
58473;BME280;44775;51.564;5.460;2023-09-19T03:00:14;100627.97;;;12.62;100.00
58473;BME280;44775;51.564;5.460;2023-09-19T03:02:39;100632.50;;;12.61;100.00
58473;BME280;44775;51.564;5.460;2023-09-19T03:05:07;100638.22;;;12.58;100.00
58473;BME280;44775;51.564;5.460;2023-09-19T03:07:32;100638.50;;;12.63;100.00
58473;BME280;44775;51.564;5.460;2023-09-19T03:09:58;100631.66;;;12.61;100.00
58473;BME280;44775;51.564;5.460;2023-09-19T03:12:23;100630.75;;;12.53;100.00
58473;BME280;44775;51.564;5.460;2023-09-19T03:14:48;100633.34;;;12.47;100.00
58473;BME280;44775;51.564;5.460;2023-09-19T03:17:15;100630.31;;;12.50;100.00
58473;BME280;44775;51.564;5.460;2023-09-19T03:19:41;100628.72;;;12.56;100.00
58473;BME280;44775;51.564;5.460;2023-09-19T03:22:06;100628.66;;;12.49;100.00
58473;BME280;44775;51.564;5.460;2023-09-19T03:24:32;100633.06;;;12.42;100.00
58473;BME280;44775;51.564;5.460;2023-09-19T03:27:00;100633.63;;;12.37;100.00
58473;BME280;44775;51.564;5.460;2023-09-19T03:29:25;100632.59;;;12.38;100.00
58473;BME280;44775;51.564;5.460;2023-09-19T03:31:52;100630.94;;;12.37;100.00
58473;BME280;44775;51.564;5.460;2023-09-19T03:34:17;100632.13;;;12.35;100.00
58473;BME280;44775;51.564;5.460;2023-09-19T03:36:42;100632.59;;;12.38;100.00
58473;BME280;44775;51.564;5.460;2023-09-19T03:39:07;100631.31;;;12.34;100.00
58473;BME280;44775;51.564;5.460;2023-09-19T03:41:33;100637.13;;;12.38;100.00
58473;BME280;44775;51.564;5.460;2023-09-19T03:44:01;100624.75;;;12.37;100.00
58473;BME280;44775;51.564;5.460;2023-09-19T03:46:27;100616.91;;;12.35;100.00
58473;BME280;44775;51.564;5.460;2023-09-19T03:48:53;100622.16;;;12.43;100.00
58473;BME280;44775;51.564;5.460;2023-09-19T03:51:19;100609.97;;;12.41;100.00
58473;BME280;44775;51.564;5.460;2023-09-19T03:53:45;100610.06;;;12.47;100.00
58473;BME280;44775;51.564;5.460;2023-09-19T03:56:10;100608.84;;;12.50;100.00
58473;BME280;44775;51.564;5.460;2023-09-19T03:58:35;100611.34;;;12.51;100.00
58473;BME280;44775;51.564;5.460;2023-09-19T04:01:04;100626.69;;;12.58;100.00
58473;BME280;44775;51.564;5.460;2023-09-19T04:03:30;100614.94;;;12.59;100.00
58473;BME280;44775;51.564;5.460;2023-09-19T04:06:01;100619.84;;;12.55;100.00
58473;BME280;44775;51.564;5.460;2023-09-19T04:08:26;100626.31;;;12.61;100.00
58473;BME280;44775;51.564;5.460;2023-09-19T04:10:52;100618.91;;;12.63;100.00
58473;BME280;44775;51.564;5.460;2023-09-19T04:13:18;100616.50;;;12.68;100.00
58473;BME280;44775;51.564;5.460;2023-09-19T04:15:43;100616.69;;;12.66;100.00
58473;BME280;44775;51.564;5.460;2023-09-19T04:18:11;100619.75;;;12.63;100.00
58473;BME280;44775;51.564;5.460;2023-09-19T04:20:36;100625.28;;;12.76;100.00
58473;BME280;44775;51.564;5.460;2023-09-19T04:23:02;100632.19;;;12.71;100.00
58473;BME280;44775;51.564;5.460;2023-09-19T04:25:27;100634.22;;;12.69;100.00
58473;BME280;44775;51.564;5.460;2023-09-19T04:27:53;100643.22;;;12.76;100.00
58473;BME280;44775;51.564;5.460;2023-09-19T04:30:18;100651.78;;;12.86;100.00
58473;BME280;44775;51.564;5.460;2023-09-19T04:32:44;100651.78;;;12.86;100.00
58473;BME280;44775;51.564;5.460;2023-09-19T04:35:10;100655.59;;;12.77;100.00
58473;BME280;44775;51.564;5.460;2023-09-19T04:37:39;100666.56;;;12.82;100.00
58473;BME280;44775;51.564;5.460;2023-09-19T04:40:09;100672.34;;;12.79;100.00
58473;BME280;44775;51.564;5.460;2023-09-19T04:42:39;100671.19;;;12.88;100.00
58473;BME280;44775;51.564;5.460;2023-09-19T04:45:04;100680.44;;;12.86;100.00
58473;BME280;44775;51.564;5.460;2023-09-19T04:47:30;100687.03;;;12.83;100.00
58473;BME280;44775;51.564;5.460;2023-09-19T04:49:55;100690.06;;;12.80;100.00
58473;BME280;44775;51.564;5.460;2023-09-19T04:52:21;100704.94;;;12.97;100.00
58473;BME280;44775;51.564;5.460;2023-09-19T04:54:47;100693.56;;;12.95;100.00
58473;BME280;44775;51.564;5.460;2023-09-19T04:57:13;100693.47;;;12.89;100.00
58473;BME280;44775;51.564;5.460;2023-09-19T04:59:39;100690.31;;;13.00;100.00
58473;BME280;44775;51.564;5.460;2023-09-19T05:02:06;100690.50;;;12.98;100.00
58473;BME280;44775;51.564;5.460;2023-09-19T05:04:33;100685.50;;;12.95;100.00
58473;BME280;44775;51.564;5.460;2023-09-19T05:06:58;100684.06;;;12.93;100.00
58473;BME280;44775;51.564;5.460;2023-09-19T05:09:23;100692.03;;;12.86;100.00
58473;BME280;44775;51.564;5.460;2023-09-19T05:11:49;100691.66;;;12.89;100.00
58473;BME280;44775;51.564;5.460;2023-09-19T05:14:16;100686.72;;;12.93;100.00
58473;BME280;44775;51.564;5.460;2023-09-19T05:16:41;100691.81;;;12.88;100.00
58473;BME280;44775;51.564;5.460;2023-09-19T05:19:07;100691.81;;;12.88;100.00
58473;BME280;44775;51.564;5.460;2023-09-19T05:21:36;100691.00;;;12.87;100.00
58473;BME280;44775;51.564;5.460;2023-09-19T05:24:07;100703.75;;;12.85;100.00
58473;BME280;44775;51.564;5.460;2023-09-19T05:26:32;100694.69;;;12.86;100.00
58473;BME280;44775;51.564;5.460;2023-09-19T05:28:58;100698.09;;;12.95;100.00
58473;BME280;44775;51.564;5.460;2023-09-19T05:31:23;100695.78;;;12.92;100.00
58473;BME280;44775;51.564;5.460;2023-09-19T05:33:50;100701.72;;;12.87;100.00
58473;BME280;44775;51.564;5.460;2023-09-19T05:36:16;100702.53;;;12.88;100.00
58473;BME280;44775;51.564;5.460;2023-09-19T05:38:42;100701.34;;;12.90;100.00
58473;BME280;44775;51.564;5.460;2023-09-19T05:41:08;100710.59;;;12.88;100.00
58473;BME280;44775;51.564;5.460;2023-09-19T05:43:35;100712.06;;;12.90;100.00
58473;BME280;44775;51.564;5.460;2023-09-19T05:46:02;100714.09;;;12.88;100.00
58473;BME280;44775;51.564;5.460;2023-09-19T05:48:28;100709.66;;;12.95;100.00
58473;BME280;44775;51.564;5.460;2023-09-19T05:50:53;100708.72;;;12.88;100.00
58473;BME280;44775;51.564;5.460;2023-09-19T05:53:19;100700.50;;;12.90;100.00
58473;BME280;44775;51.564;5.460;2023-09-19T05:55:44;100705.88;;;12.90;100.00
58473;BME280;44775;51.564;5.460;2023-09-19T05:58:11;100699.66;;;13.04;100.00
58473;BME280;44775;51.564;5.460;2023-09-19T06:00:39;100690.19;;;13.08;100.00
58473;BME280;44775;51.564;5.460;2023-09-19T06:03:06;100699.72;;;13.11;100.00
58473;BME280;44775;51.564;5.460;2023-09-19T06:05:33;100705.00;;;13.04;100.00
58473;BME280;44775;51.564;5.460;2023-09-19T06:07:58;100704.34;;;13.02;100.00
58473;BME280;44775;51.564;5.460;2023-09-19T06:10:33;100708.91;;;13.02;100.00
58473;BME280;44775;51.564;5.460;2023-09-19T06:12:59;100701.13;;;13.07;100.00
58473;BME280;44775;51.564;5.460;2023-09-19T06:15:25;100713.16;;;13.11;100.00
58473;BME280;44775;51.564;5.460;2023-09-19T06:17:53;100718.59;;;13.17;100.00
58473;BME280;44775;51.564;5.460;2023-09-19T06:20:20;100710.72;;;13.16;100.00
58473;BME280;44775;51.564;5.460;2023-09-19T06:22:45;100708.09;;;13.22;100.00
58473;BME280;44775;51.564;5.460;2023-09-19T06:25:12;100715.25;;;13.30;100.00
58473;BME280;44775;51.564;5.460;2023-09-19T06:27:39;100708.31;;;13.21;100.00
58473;BME280;44775;51.564;5.460;2023-09-19T06:30:08;100719.97;;;13.28;100.00
58473;BME280;44775;51.564;5.460;2023-09-19T06:32:34;100736.28;;;13.27;100.00
58473;BME280;44775;51.564;5.460;2023-09-19T06:35:00;100733.41;;;13.28;100.00
58473;BME280;44775;51.564;5.460;2023-09-19T06:37:29;100744.13;;;13.28;100.00
58473;BME280;44775;51.564;5.460;2023-09-19T06:39:54;100740.03;;;13.32;100.00
58473;BME280;44775;51.564;5.460;2023-09-19T06:42:20;100741.31;;;13.36;100.00
58473;BME280;44775;51.564;5.460;2023-09-19T06:44:48;100743.81;;;13.38;100.00
58473;BME280;44775;51.564;5.460;2023-09-19T06:47:13;100743.91;;;13.44;100.00
58473;BME280;44775;51.564;5.460;2023-09-19T06:49:39;100755.47;;;13.45;100.00
58473;BME280;44775;51.564;5.460;2023-09-19T06:52:05;100750.75;;;13.47;100.00
58473;BME280;44775;51.564;5.460;2023-09-19T06:54:30;100750.16;;;13.52;100.00
58473;BME280;44775;51.564;5.460;2023-09-19T06:56:57;100753.13;;;13.57;100.00
58473;BME280;44775;51.564;5.460;2023-09-19T06:59:24;100740.97;;;13.61;100.00
58473;BME280;44775;51.564;5.460;2023-09-19T07:01:49;100744.22;;;13.56;100.00
58473;BME280;44775;51.564;5.460;2023-09-19T07:04:15;100742.56;;;13.55;100.00
58473;BME280;44775;51.564;5.460;2023-09-19T07:06:42;100728.13;;;13.56;100.00
58473;BME280;44775;51.564;5.460;2023-09-19T07:09:07;100737.34;;;13.68;100.00
58473;BME280;44775;51.564;5.460;2023-09-19T07:11:33;100743.16;;;13.72;100.00
58473;BME280;44775;51.564;5.460;2023-09-19T07:13:59;100743.91;;;13.66;100.00
58473;BME280;44775;51.564;5.460;2023-09-19T07:16:24;100746.50;;;13.74;100.00
58473;BME280;44775;51.564;5.460;2023-09-19T07:18:54;100749.78;;;13.76;100.00
58473;BME280;44775;51.564;5.460;2023-09-19T07:21:22;100750.63;;;13.77;100.00
58473;BME280;44775;51.564;5.460;2023-09-19T07:23:47;100751.59;;;13.90;100.00
58473;BME280;44775;51.564;5.460;2023-09-19T07:26:13;100748.00;;;13.83;100.00
58473;BME280;44775;51.564;5.460;2023-09-19T07:28:38;100743.72;;;13.89;100.00
58473;BME280;44775;51.564;5.460;2023-09-19T07:31:03;100737.97;;;13.92;100.00
58473;BME280;44775;51.564;5.460;2023-09-19T07:33:30;100742.41;;;14.06;100.00
58473;BME280;44775;51.564;5.460;2023-09-19T07:35:55;100736.06;;;14.14;100.00
58473;BME280;44775;51.564;5.460;2023-09-19T07:38:21;100742.69;;;14.39;100.00
58473;BME280;44775;51.564;5.460;2023-09-19T07:40:46;100757.34;;;14.37;100.00
58473;BME280;44775;51.564;5.460;2023-09-19T07:43:12;100748.44;;;14.58;100.00
58473;BME280;44775;51.564;5.460;2023-09-19T07:45:37;100749.69;;;14.62;100.00
58473;BME280;44775;51.564;5.460;2023-09-19T07:48:02;100757.63;;;14.77;100.00
58473;BME280;44775;51.564;5.460;2023-09-19T07:50:30;100752.47;;;14.75;100.00
58473;BME280;44775;51.564;5.460;2023-09-19T07:52:55;100762.66;;;14.86;100.00
58473;BME280;44775;51.564;5.460;2023-09-19T07:55:21;100759.25;;;15.06;100.00
58473;BME280;44775;51.564;5.460;2023-09-19T07:57:50;100753.88;;;15.06;100.00
58473;BME280;44775;51.564;5.460;2023-09-19T08:00:16;100755.31;;;15.15;100.00
58473;BME280;44775;51.564;5.460;2023-09-19T08:02:42;100762.19;;;15.24;100.00
58473;BME280;44775;51.564;5.460;2023-09-19T08:05:11;100762.50;;;15.43;100.00
58473;BME280;44775;51.564;5.460;2023-09-19T08:07:41;100767.88;;;15.43;100.00
58473;BME280;44775;51.564;5.460;2023-09-19T08:10:08;100770.59;;;15.49;100.00
58473;BME280;44775;51.564;5.460;2023-09-19T08:12:34;100770.78;;;15.54;100.00
58473;BME280;44775;51.564;5.460;2023-09-19T08:15:02;100781.59;;;15.61;100.00
58473;BME280;44775;51.564;5.460;2023-09-19T08:17:27;100771.28;;;15.78;100.00
58473;BME280;44775;51.564;5.460;2023-09-19T08:19:53;100766.53;;;15.73;100.00
58473;BME280;44775;51.564;5.460;2023-09-19T08:22:21;100771.75;;;15.95;100.00
58473;BME280;44775;51.564;5.460;2023-09-19T08:24:46;100764.06;;;16.32;100.00
58473;BME280;44775;51.564;5.460;2023-09-19T08:27:13;100763.66;;;16.01;100.00
58473;BME280;44775;51.564;5.460;2023-09-19T08:29:38;100758.25;;;15.81;100.00
58473;BME280;44775;51.564;5.460;2023-09-19T08:32:04;100764.69;;;16.00;100.00
58473;BME280;44775;51.564;5.460;2023-09-19T08:34:29;100773.63;;;16.01;100.00
58473;BME280;44775;51.564;5.460;2023-09-19T08:36:56;100774.22;;;16.03;100.00
58473;BME280;44775;51.564;5.460;2023-09-19T08:39:25;100759.72;;;16.04;100.00
58473;BME280;44775;51.564;5.460;2023-09-19T08:41:57;100768.66;;;16.24;100.00
58473;BME280;44775;51.564;5.460;2023-09-19T08:44:24;100757.03;;;16.44;100.00
58473;BME280;44775;51.564;5.460;2023-09-19T08:46:50;100767.41;;;16.47;100.00
58473;BME280;44775;51.564;5.460;2023-09-19T08:49:36;100773.38;;;16.69;100.00
58473;BME280;44775;51.564;5.460;2023-09-19T08:52:22;100778.97;;;16.81;100.00
58473;BME280;44775;51.564;5.460;2023-09-19T08:54:52;100766.13;;;16.49;100.00
58473;BME280;44775;51.564;5.460;2023-09-19T08:57:21;100778.34;;;16.72;100.00
58473;BME280;44775;51.564;5.460;2023-09-19T08:59:48;100768.34;;;16.99;100.00
58473;BME280;44775;51.564;5.460;2023-09-19T09:02:15;100770.88;;;16.81;100.00
58473;BME280;44775;51.564;5.460;2023-09-19T09:04:43;100775.84;;;16.84;100.00
58473;BME280;44775;51.564;5.460;2023-09-19T09:07:14;100770.03;;;16.87;100.00
58473;BME280;44775;51.564;5.460;2023-09-19T09:09:40;100763.78;;;16.93;100.00
58473;BME280;44775;51.564;5.460;2023-09-19T09:12:13;100767.78;;;17.35;100.00
58473;BME280;44775;51.564;5.460;2023-09-19T09:14:40;100766.47;;;17.44;100.00
58473;BME280;44775;51.564;5.460;2023-09-19T09:17:06;100773.63;;;17.32;100.00
58473;BME280;44775;51.564;5.460;2023-09-19T09:19:32;100773.00;;;17.30;100.00
58473;BME280;44775;51.564;5.460;2023-09-19T09:22:08;100777.56;;;17.30;100.00
58473;BME280;44775;51.564;5.460;2023-09-19T09:24:34;100781.41;;;17.54;100.00
58473;BME280;44775;51.564;5.460;2023-09-19T09:27:03;100778.69;;;17.54;100.00
58473;BME280;44775;51.564;5.460;2023-09-19T09:29:50;100782.22;;;17.54;100.00
58473;BME280;44775;51.564;5.460;2023-09-19T09:32:26;100775.72;;;17.68;100.00
58473;BME280;44775;51.564;5.460;2023-09-19T09:34:55;100753.63;;;17.71;100.00
58473;BME280;44775;51.564;5.460;2023-09-19T09:37:22;100757.88;;;17.99;100.00
58473;BME280;44775;51.564;5.460;2023-09-19T09:39:55;100752.88;;;17.96;100.00
58473;BME280;44775;51.564;5.460;2023-09-19T09:42:34;100760.09;;;17.77;100.00
58473;BME280;44775;51.564;5.460;2023-09-19T09:45:15;100760.63;;;17.92;100.00
58473;BME280;44775;51.564;5.460;2023-09-19T09:47:46;100756.19;;;17.98;100.00
58473;BME280;44775;51.564;5.460;2023-09-19T09:50:25;100748.41;;;18.08;100.00
58473;BME280;44775;51.564;5.460;2023-09-19T09:52:55;100749.50;;;18.01;100.00
58473;BME280;44775;51.564;5.460;2023-09-19T09:55:28;100749.34;;;18.21;100.00
58473;BME280;44775;51.564;5.460;2023-09-19T09:58:16;100759.81;;;18.60;100.00
58473;BME280;44775;51.564;5.460;2023-09-19T10:01:03;100762.72;;;18.59;100.00
58473;BME280;44775;51.564;5.460;2023-09-19T10:03:39;100770.56;;;18.67;98.77
58473;BME280;44775;51.564;5.460;2023-09-19T10:06:13;100768.88;;;18.48;99.09
58473;BME280;44775;51.564;5.460;2023-09-19T10:11:30;100766.63;;;18.45;97.28
58473;BME280;44775;51.564;5.460;2023-09-19T10:13:57;100765.97;;;18.24;99.99
58473;BME280;44775;51.564;5.460;2023-09-19T10:16:29;100761.13;;;18.33;99.87
58473;BME280;44775;51.564;5.460;2023-09-19T10:18:59;100770.31;;;18.25;100.00
58473;BME280;44775;51.564;5.460;2023-09-19T10:21:28;100774.47;;;18.28;98.75
58473;BME280;44775;51.564;5.460;2023-09-19T10:23:57;100758.41;;;18.33;98.96
58473;BME280;44775;51.564;5.460;2023-09-19T10:26:26;100753.47;;;18.48;97.25
58473;BME280;44775;51.564;5.460;2023-09-19T10:28:56;100759.63;;;18.55;99.25
58473;BME280;44775;51.564;5.460;2023-09-19T10:31:26;100754.16;;;18.62;95.40
58473;BME280;44775;51.564;5.460;2023-09-19T10:33:53;100776.50;;;19.01;92.94
58473;BME280;44775;51.564;5.460;2023-09-19T10:36:24;100755.78;;;18.88;95.19
58473;BME280;44775;51.564;5.460;2023-09-19T10:38:55;100762.09;;;18.82;94.28
58473;BME280;44775;51.564;5.460;2023-09-19T10:41:22;100748.72;;;19.24;93.42
58473;BME280;44775;51.564;5.460;2023-09-19T10:43:48;100756.31;;;19.15;88.92
58473;BME280;44775;51.564;5.460;2023-09-19T10:46:14;100750.72;;;19.28;89.43
58473;BME280;44775;51.564;5.460;2023-09-19T10:48:40;100765.72;;;19.31;88.88
58473;BME280;44775;51.564;5.460;2023-09-19T10:51:18;100754.03;;;19.61;87.79
58473;BME280;44775;51.564;5.460;2023-09-19T10:56:19;100748.16;;;19.64;84.15
58473;BME280;44775;51.564;5.460;2023-09-19T10:58:46;100752.00;;;19.56;86.56
58473;BME280;44775;51.564;5.460;2023-09-19T11:01:13;100750.47;;;19.48;84.96
58473;BME280;44775;51.564;5.460;2023-09-19T11:03:40;100742.50;;;19.35;85.53
58473;BME280;44775;51.564;5.460;2023-09-19T11:06:13;100739.72;;;19.42;87.60
58473;BME280;44775;51.564;5.460;2023-09-19T11:08:58;100725.88;;;19.62;85.22
58473;BME280;44775;51.564;5.460;2023-09-19T11:14:37;100721.72;;;19.89;83.12
58473;BME280;44775;51.564;5.460;2023-09-19T11:30:37;100713.50;;;20.66;77.90
58473;BME280;44775;51.564;5.460;2023-09-19T11:33:22;100701.13;;;20.59;75.05
58473;BME280;44775;51.564;5.460;2023-09-19T11:36:11;100703.78;;;20.82;74.21
58473;BME280;44775;51.564;5.460;2023-09-19T11:41:37;100706.06;;;21.42;72.39
58473;BME280;44775;51.564;5.460;2023-09-19T11:46:34;100695.50;;;20.89;74.89
58473;BME280;44775;51.564;5.460;2023-09-19T11:49:13;100682.84;;;20.94;71.98
58473;BME280;44775;51.564;5.460;2023-09-19T11:51:41;100683.97;;;21.10;70.32
58473;BME280;44775;51.564;5.460;2023-09-19T11:54:11;100672.03;;;21.11;69.45
58473;BME280;44775;51.564;5.460;2023-09-19T11:56:57;100680.06;;;20.78;70.76
58473;BME280;44775;51.564;5.460;2023-09-19T11:59:24;100669.44;;;20.76;70.49
58473;BME280;44775;51.564;5.460;2023-09-19T12:01:58;100668.63;;;20.75;70.96
58473;BME280;44775;51.564;5.460;2023-09-19T12:04:41;100674.94;;;20.93;72.59
58473;BME280;44775;51.564;5.460;2023-09-19T12:07:12;100669.19;;;20.89;70.76
58473;BME280;44775;51.564;5.460;2023-09-19T12:09:42;100662.22;;;20.82;71.40
58473;BME280;44775;51.564;5.460;2023-09-19T12:12:10;100661.94;;;20.95;69.45
58473;BME280;44775;51.564;5.460;2023-09-19T12:14:38;100687.94;;;20.91;70.61
58473;BME280;44775;51.564;5.460;2023-09-19T12:17:04;100667.97;;;20.97;69.43
58473;BME280;44775;51.564;5.460;2023-09-19T12:19:30;100665.59;;;20.89;72.13
58473;BME280;44775;51.564;5.460;2023-09-19T12:22:02;100670.28;;;20.65;72.52
58473;BME280;44775;51.564;5.460;2023-09-19T12:24:32;100684.34;;;20.62;72.80
58473;BME280;44775;51.564;5.460;2023-09-19T12:27:05;100674.47;;;20.56;72.98
58473;BME280;44775;51.564;5.460;2023-09-19T12:29:44;100673.38;;;20.57;73.44
58473;BME280;44775;51.564;5.460;2023-09-19T12:32:10;100681.41;;;20.51;74.37
58473;BME280;44775;51.564;5.460;2023-09-19T12:34:36;100684.72;;;20.30;76.04
58473;BME280;44775;51.564;5.460;2023-09-19T12:37:12;100685.78;;;20.17;75.09
58473;BME280;44775;51.564;5.460;2023-09-19T12:39:39;100686.94;;;19.86;75.52
58473;BME280;44775;51.564;5.460;2023-09-19T12:42:07;100681.97;;;19.83;75.94
58473;BME280;44775;51.564;5.460;2023-09-19T12:44:35;100676.00;;;19.63;78.29
58473;BME280;44775;51.564;5.460;2023-09-19T12:47:10;100677.50;;;20.00;77.38
58473;BME280;44775;51.564;5.460;2023-09-19T12:49:36;100677.97;;;19.97;75.56
58473;BME280;44775;51.564;5.460;2023-09-19T12:52:01;100672.78;;;20.08;74.85
58473;BME280;44775;51.564;5.460;2023-09-19T12:54:38;100664.75;;;20.24;76.26
58473;BME280;44775;51.564;5.460;2023-09-19T12:57:04;100666.97;;;20.74;74.77
58473;BME280;44775;51.564;5.460;2023-09-19T12:59:30;100670.41;;;21.10;71.26
58473;BME280;44775;51.564;5.460;2023-09-19T13:02:04;100686.72;;;21.39;70.38
58473;BME280;44775;51.564;5.460;2023-09-19T13:04:32;100691.22;;;21.33;69.75
58473;BME280;44775;51.564;5.460;2023-09-19T13:06:59;100672.50;;;21.08;71.32
58473;BME280;44775;51.564;5.460;2023-09-19T13:09:27;100685.66;;;21.28;70.75
58473;BME280;44775;51.564;5.460;2023-09-19T13:12:05;100672.06;;;21.28;69.77
58473;BME280;44775;51.564;5.460;2023-09-19T13:14:32;100677.44;;;21.52;70.08
58473;BME280;44775;51.564;5.460;2023-09-19T13:17:06;100680.59;;;21.03;70.32
58473;BME280;44775;51.564;5.460;2023-09-19T13:19:43;100675.97;;;20.63;72.59
58473;BME280;44775;51.564;5.460;2023-09-19T13:22:50;100678.56;;;20.58;72.77
58473;BME280;44775;51.564;5.460;2023-09-19T13:25:21;100680.38;;;20.52;72.16